This is the latest recevied weather packets stored in our database for station/object HG8LXL-2. If no packets are shown the sender has not sent any weather packets the latest 10 day(s).
| Time | Temp. | Humidity | Pressure | Rain* | Wind** | Luminosity | Snow |
|---|---|---|---|---|---|---|---|
| 1778207104 | 21.11° C | 67% | 1011.8 hPa | - | - | - | - |
| 1778206804 | 21.11° C | 69% | 1011.9 hPa | - | - | - | - |
| 1778206504 | 20.56° C | 69% | 1012 hPa | - | - | - | - |
| 1778206204 | 20.56° C | 70% | 1012 hPa | - | - | - | - |
| 1778205904 | 21.11° C | 68% | 1012 hPa | - | - | - | - |
| 1778205604 | 21.11° C | 68% | 1011.9 hPa | - | - | - | - |
| 1778205304 | 21.11° C | 67% | 1011.9 hPa | - | - | - | - |
| 1778205004 | 21.11° C | 66% | 1012 hPa | - | - | - | - |
| 1778204704 | 21.11° C | 64% | 1012 hPa | - | - | - | - |
| 1778204404 | 21.67° C | 64% | 1011.9 hPa | - | - | - | - |
| 1778204104 | 21.67° C | 64% | 1012 hPa | - | - | - | - |
| 1778203804 | 21.11° C | 68% | 1011.9 hPa | - | - | - | - |
| 1778203504 | 21.11° C | 69% | 1012 hPa | - | - | - | - |
| 1778203204 | 21.11° C | 68% | 1011.9 hPa | - | - | - | - |
| 1778202904 | 21.67° C | 66% | 1011.8 hPa | - | - | - | - |
| 1778202604 | 21.67° C | 64% | 1012.1 hPa | - | - | - | - |
| 1778202304 | 21.67° C | 66% | 1012.1 hPa | - | - | - | - |
| 1778202004 | 21.67° C | 65% | 1012.1 hPa | - | - | - | - |
| 1778201704 | 21.67° C | 65% | 1012.2 hPa | - | - | - | - |
| 1778201405 | 22.22° C | 63% | 1012.2 hPa | - | - | - | - |
| 1778201104 | 22.22° C | 64% | 1012.1 hPa | - | - | - | - |
| 1778200804 | 22.22° C | 65% | 1012.1 hPa | - | - | - | - |
| 1778200504 | 22.22° C | 64% | 1012.1 hPa | - | - | - | - |
| 1778200204 | 22.22° C | 64% | 1012.2 hPa | - | - | - | - |
| 1778199904 | 21.67° C | 66% | 1012.2 hPa | - | - | - | - |
* Rain since midnight (hover to see other rain measurements)
** Current wind speed in m/s (hover to see current wind gust speed)